sensor_id;sensor_type;location;lat;lon;timestamp;P1;durP1;ratioP1;P2;durP2;ratioP2
34278;SDS011;20538;51.528;9.942;2023-05-16T00:00:03;29.80;;;19.45;;
34278;SDS011;20538;51.528;9.942;2023-05-16T00:02:36;29.90;;;20.27;;
34278;SDS011;20538;51.528;9.942;2023-05-16T00:05:03;30.13;;;20.40;;
34278;SDS011;20538;51.528;9.942;2023-05-16T00:07:32;31.23;;;21.85;;
34278;SDS011;20538;51.528;9.942;2023-05-16T00:09:58;28.40;;;20.92;;
34278;SDS011;20538;51.528;9.942;2023-05-16T00:12:24;26.88;;;20.58;;
34278;SDS011;20538;51.528;9.942;2023-05-16T00:14:50;33.33;;;20.95;;
34278;SDS011;20538;51.528;9.942;2023-05-16T00:17:16;31.15;;;19.95;;
34278;SDS011;20538;51.528;9.942;2023-05-16T00:19:44;34.80;;;21.10;;
34278;SDS011;20538;51.528;9.942;2023-05-16T00:22:12;34.65;;;20.90;;
34278;SDS011;20538;51.528;9.942;2023-05-16T00:24:39;29.13;;;20.10;;
34278;SDS011;20538;51.528;9.942;2023-05-16T00:27:05;28.88;;;20.40;;
34278;SDS011;20538;51.528;9.942;2023-05-16T00:29:32;29.05;;;20.58;;
34278;SDS011;20538;51.528;9.942;2023-05-16T00:32:00;28.83;;;19.02;;
34278;SDS011;20538;51.528;9.942;2023-05-16T00:34:26;29.92;;;20.02;;
34278;SDS011;20538;51.528;9.942;2023-05-16T00:36:51;28.55;;;19.33;;
34278;SDS011;20538;51.528;9.942;2023-05-16T00:39:17;29.23;;;18.33;;
34278;SDS011;20538;51.528;9.942;2023-05-16T00:41:43;31.52;;;20.42;;
34278;SDS011;20538;51.528;9.942;2023-05-16T00:44:10;18.73;;;10.82;;
34278;SDS011;20538;51.528;9.942;2023-05-16T00:46:36;32.50;;;20.25;;
34278;SDS011;20538;51.528;9.942;2023-05-16T00:49:01;30.08;;;19.98;;
34278;SDS011;20538;51.528;9.942;2023-05-16T00:51:27;32.58;;;20.70;;
34278;SDS011;20538;51.528;9.942;2023-05-16T00:53:54;30.95;;;20.45;;
34278;SDS011;20538;51.528;9.942;2023-05-16T00:56:20;34.15;;;21.92;;
34278;SDS011;20538;51.528;9.942;2023-05-16T00:58:46;35.63;;;18.60;;
34278;SDS011;20538;51.528;9.942;2023-05-16T01:01:12;28.73;;;19.40;;
34278;SDS011;20538;51.528;9.942;2023-05-16T01:03:38;29.08;;;19.42;;
34278;SDS011;20538;51.528;9.942;2023-05-16T01:06:04;28.98;;;19.38;;
34278;SDS011;20538;51.528;9.942;2023-05-16T01:08:30;32.58;;;20.38;;
34278;SDS011;20538;51.528;9.942;2023-05-16T01:11:06;29.92;;;18.77;;
34278;SDS011;20538;51.528;9.942;2023-05-16T01:13:54;30.47;;;19.17;;
34278;SDS011;20538;51.528;9.942;2023-05-16T01:16:41;31.63;;;19.90;;
34278;SDS011;20538;51.528;9.942;2023-05-16T01:22:10;26.65;;;18.73;;
34278;SDS011;20538;51.528;9.942;2023-05-16T01:27:24;28.30;;;18.20;;
34278;SDS011;20538;51.528;9.942;2023-05-16T01:29:56;25.88;;;17.48;;
34278;SDS011;20538;51.528;9.942;2023-05-16T01:32:22;26.63;;;18.13;;
34278;SDS011;20538;51.528;9.942;2023-05-16T01:34:52;26.52;;;17.70;;
34278;SDS011;20538;51.528;9.942;2023-05-16T01:37:20;26.10;;;18.05;;
34278;SDS011;20538;51.528;9.942;2023-05-16T01:39:56;26.83;;;18.65;;
34278;SDS011;20538;51.528;9.942;2023-05-16T01:42:31;23.38;;;12.27;;
34278;SDS011;20538;51.528;9.942;2023-05-16T01:48:04;25.27;;;14.63;;
34278;SDS011;20538;51.528;9.942;2023-05-16T01:50:33;22.33;;;13.02;;
34278;SDS011;20538;51.528;9.942;2023-05-16T01:53:05;30.80;;;18.35;;
34278;SDS011;20538;51.528;9.942;2023-05-16T01:55:41;28.65;;;17.63;;
34278;SDS011;20538;51.528;9.942;2023-05-16T01:58:16;26.50;;;17.75;;
34278;SDS011;20538;51.528;9.942;2023-05-16T02:00:46;30.83;;;18.13;;
34278;SDS011;20538;51.528;9.942;2023-05-16T02:03:12;26.92;;;15.80;;
34278;SDS011;20538;51.528;9.942;2023-05-16T02:05:38;27.25;;;15.65;;
34278;SDS011;20538;51.528;9.942;2023-05-16T02:08:03;29.25;;;17.13;;
34278;SDS011;20538;51.528;9.942;2023-05-16T02:10:29;23.35;;;15.50;;
34278;SDS011;20538;51.528;9.942;2023-05-16T02:12:55;24.23;;;15.43;;
34278;SDS011;20538;51.528;9.942;2023-05-16T02:15:21;24.88;;;15.88;;
34278;SDS011;20538;51.528;9.942;2023-05-16T02:17:46;22.30;;;13.55;;
34278;SDS011;20538;51.528;9.942;2023-05-16T02:20:12;27.73;;;16.27;;
34278;SDS011;20538;51.528;9.942;2023-05-16T02:22:38;27.63;;;17.23;;
34278;SDS011;20538;51.528;9.942;2023-05-16T02:25:04;32.00;;;15.77;;
34278;SDS011;20538;51.528;9.942;2023-05-16T02:27:30;24.45;;;14.68;;
34278;SDS011;20538;51.528;9.942;2023-05-16T02:29:56;26.17;;;15.63;;
34278;SDS011;20538;51.528;9.942;2023-05-16T02:32:22;24.67;;;14.73;;
34278;SDS011;20538;51.528;9.942;2023-05-16T02:34:48;28.55;;;15.38;;
34278;SDS011;20538;51.528;9.942;2023-05-16T02:37:14;24.17;;;10.80;;
34278;SDS011;20538;51.528;9.942;2023-05-16T02:39:40;21.30;;;13.10;;
34278;SDS011;20538;51.528;9.942;2023-05-16T02:42:06;21.48;;;12.90;;
34278;SDS011;20538;51.528;9.942;2023-05-16T02:44:32;24.95;;;13.93;;
34278;SDS011;20538;51.528;9.942;2023-05-16T02:46:57;21.73;;;13.52;;
34278;SDS011;20538;51.528;9.942;2023-05-16T02:49:23;23.88;;;13.73;;
34278;SDS011;20538;51.528;9.942;2023-05-16T02:51:49;20.25;;;11.90;;
34278;SDS011;20538;51.528;9.942;2023-05-16T02:54:15;21.20;;;10.93;;
34278;SDS011;20538;51.528;9.942;2023-05-16T02:56:41;20.60;;;12.27;;
34278;SDS011;20538;51.528;9.942;2023-05-16T02:59:07;25.17;;;12.55;;
34278;SDS011;20538;51.528;9.942;2023-05-16T03:01:32;25.10;;;12.77;;
34278;SDS011;20538;51.528;9.942;2023-05-16T03:03:58;22.17;;;11.20;;
34278;SDS011;20538;51.528;9.942;2023-05-16T03:06:24;21.67;;;12.13;;
34278;SDS011;20538;51.528;9.942;2023-05-16T03:08:50;19.60;;;10.48;;
34278;SDS011;20538;51.528;9.942;2023-05-16T03:11:17;18.58;;;10.40;;
34278;SDS011;20538;51.528;9.942;2023-05-16T03:13:46;21.35;;;11.45;;
34278;SDS011;20538;51.528;9.942;2023-05-16T03:16:13;21.48;;;11.90;;
34278;SDS011;20538;51.528;9.942;2023-05-16T03:18:39;24.67;;;12.20;;
34278;SDS011;20538;51.528;9.942;2023-05-16T03:21:05;17.23;;;10.23;;
34278;SDS011;20538;51.528;9.942;2023-05-16T03:23:32;23.13;;;11.90;;
34278;SDS011;20538;51.528;9.942;2023-05-16T03:25:58;25.17;;;12.05;;
34278;SDS011;20538;51.528;9.942;2023-05-16T03:28:23;25.08;;;13.80;;
34278;SDS011;20538;51.528;9.942;2023-05-16T03:30:51;22.40;;;13.40;;
34278;SDS011;20538;51.528;9.942;2023-05-16T03:33:17;25.55;;;12.98;;
34278;SDS011;20538;51.528;9.942;2023-05-16T03:35:43;25.15;;;13.68;;
34278;SDS011;20538;51.528;9.942;2023-05-16T03:38:10;31.65;;;14.38;;
34278;SDS011;20538;51.528;9.942;2023-05-16T03:40:36;21.85;;;11.48;;
34278;SDS011;20538;51.528;9.942;2023-05-16T03:43:02;24.88;;;14.05;;
34278;SDS011;20538;51.528;9.942;2023-05-16T03:45:28;24.70;;;13.30;;
34278;SDS011;20538;51.528;9.942;2023-05-16T03:47:55;25.05;;;14.27;;
34278;SDS011;20538;51.528;9.942;2023-05-16T03:50:21;25.02;;;13.65;;
34278;SDS011;20538;51.528;9.942;2023-05-16T03:52:46;22.15;;;12.85;;
34278;SDS011;20538;51.528;9.942;2023-05-16T03:55:12;23.27;;;13.23;;
34278;SDS011;20538;51.528;9.942;2023-05-16T03:57:40;23.55;;;12.60;;
34278;SDS011;20538;51.528;9.942;2023-05-16T04:00:06;20.58;;;11.95;;
34278;SDS011;20538;51.528;9.942;2023-05-16T04:02:33;22.98;;;13.77;;
34278;SDS011;20538;51.528;9.942;2023-05-16T04:04:58;22.70;;;11.93;;
34278;SDS011;20538;51.528;9.942;2023-05-16T04:07:24;19.23;;;12.05;;
34278;SDS011;20538;51.528;9.942;2023-05-16T04:09:50;21.33;;;12.38;;
34278;SDS011;20538;51.528;9.942;2023-05-16T04:12:16;16.58;;;9.27;;
34278;SDS011;20538;51.528;9.942;2023-05-16T04:14:41;16.98;;;11.15;;
34278;SDS011;20538;51.528;9.942;2023-05-16T04:17:07;27.33;;;13.93;;
34278;SDS011;20538;51.528;9.942;2023-05-16T04:19:34;23.02;;;13.57;;
34278;SDS011;20538;51.528;9.942;2023-05-16T04:22:00;22.05;;;12.23;;
34278;SDS011;20538;51.528;9.942;2023-05-16T04:24:25;23.08;;;14.23;;
34278;SDS011;20538;51.528;9.942;2023-05-16T04:26:52;24.80;;;13.13;;
34278;SDS011;20538;51.528;9.942;2023-05-16T04:29:19;23.30;;;14.25;;
34278;SDS011;20538;51.528;9.942;2023-05-16T04:31:45;25.00;;;14.35;;
34278;SDS011;20538;51.528;9.942;2023-05-16T04:34:11;25.90;;;13.85;;
34278;SDS011;20538;51.528;9.942;2023-05-16T04:36:37;24.27;;;11.95;;
34278;SDS011;20538;51.528;9.942;2023-05-16T04:39:03;23.90;;;12.93;;
34278;SDS011;20538;51.528;9.942;2023-05-16T04:41:28;23.27;;;11.95;;
34278;SDS011;20538;51.528;9.942;2023-05-16T04:43:54;23.02;;;11.80;;
34278;SDS011;20538;51.528;9.942;2023-05-16T04:46:20;20.80;;;12.00;;
34278;SDS011;20538;51.528;9.942;2023-05-16T04:48:45;21.20;;;11.57;;
34278;SDS011;20538;51.528;9.942;2023-05-16T04:51:11;13.45;;;9.05;;
34278;SDS011;20538;51.528;9.942;2023-05-16T04:53:37;18.05;;;10.32;;
34278;SDS011;20538;51.528;9.942;2023-05-16T04:56:02;16.95;;;10.45;;
34278;SDS011;20538;51.528;9.942;2023-05-16T04:58:29;14.45;;;8.93;;
34278;SDS011;20538;51.528;9.942;2023-05-16T05:00:55;14.45;;;8.50;;
34278;SDS011;20538;51.528;9.942;2023-05-16T05:03:21;12.80;;;8.35;;
34278;SDS011;20538;51.528;9.942;2023-05-16T05:05:47;16.05;;;8.93;;
34278;SDS011;20538;51.528;9.942;2023-05-16T05:08:13;11.27;;;5.07;;
34278;SDS011;20538;51.528;9.942;2023-05-16T05:10:39;13.30;;;8.45;;
34278;SDS011;20538;51.528;9.942;2023-05-16T05:13:05;11.90;;;7.65;;
34278;SDS011;20538;51.528;9.942;2023-05-16T05:15:30;15.07;;;8.20;;
34278;SDS011;20538;51.528;9.942;2023-05-16T05:17:56;16.05;;;8.45;;
34278;SDS011;20538;51.528;9.942;2023-05-16T05:20:22;11.15;;;7.07;;
34278;SDS011;20538;51.528;9.942;2023-05-16T05:22:47;14.05;;;7.63;;
34278;SDS011;20538;51.528;9.942;2023-05-16T05:25:13;12.43;;;7.55;;
34278;SDS011;20538;51.528;9.942;2023-05-16T05:27:39;13.10;;;6.90;;
34278;SDS011;20538;51.528;9.942;2023-05-16T05:30:05;10.60;;;5.93;;
34278;SDS011;20538;51.528;9.942;2023-05-16T05:32:31;9.98;;;6.13;;
34278;SDS011;20538;51.528;9.942;2023-05-16T05:34:56;13.30;;;6.28;;
34278;SDS011;20538;51.528;9.942;2023-05-16T05:37:22;9.55;;;6.18;;
34278;SDS011;20538;51.528;9.942;2023-05-16T05:39:48;10.27;;;5.35;;
34278;SDS011;20538;51.528;9.942;2023-05-16T05:42:14;7.43;;;4.80;;
34278;SDS011;20538;51.528;9.942;2023-05-16T05:44:40;9.40;;;4.97;;
34278;SDS011;20538;51.528;9.942;2023-05-16T05:47:05;11.52;;;5.15;;
34278;SDS011;20538;51.528;9.942;2023-05-16T05:49:31;5.18;;;3.65;;
34278;SDS011;20538;51.528;9.942;2023-05-16T05:51:57;5.43;;;3.88;;
34278;SDS011;20538;51.528;9.942;2023-05-16T05:54:23;5.13;;;2.92;;
34278;SDS011;20538;51.528;9.942;2023-05-16T05:56:49;7.22;;;3.20;;
34278;SDS011;20538;51.528;9.942;2023-05-16T05:59:15;10.65;;;3.30;;
34278;SDS011;20538;51.528;9.942;2023-05-16T06:01:41;3.97;;;2.10;;
34278;SDS011;20538;51.528;9.942;2023-05-16T06:04:09;7.35;;;1.98;;
34278;SDS011;20538;51.528;9.942;2023-05-16T06:06:36;5.68;;;2.50;;
34278;SDS011;20538;51.528;9.942;2023-05-16T06:09:02;6.88;;;2.40;;
34278;SDS011;20538;51.528;9.942;2023-05-16T06:11:27;8.65;;;3.30;;
34278;SDS011;20538;51.528;9.942;2023-05-16T06:13:53;7.20;;;2.63;;
34278;SDS011;20538;51.528;9.942;2023-05-16T06:16:18;7.82;;;2.42;;
34278;SDS011;20538;51.528;9.942;2023-05-16T06:18:48;8.63;;;2.00;;
34278;SDS011;20538;51.528;9.942;2023-05-16T06:21:14;6.40;;;2.88;;
34278;SDS011;20538;51.528;9.942;2023-05-16T06:23:39;8.57;;;2.63;;
34278;SDS011;20538;51.528;9.942;2023-05-16T06:26:05;10.30;;;3.50;;
34278;SDS011;20538;51.528;9.942;2023-05-16T06:28:31;10.38;;;3.15;;
34278;SDS011;20538;51.528;9.942;2023-05-16T06:30:56;10.18;;;2.67;;
34278;SDS011;20538;51.528;9.942;2023-05-16T06:33:22;5.80;;;2.97;;
34278;SDS011;20538;51.528;9.942;2023-05-16T06:35:47;10.18;;;2.80;;
34278;SDS011;20538;51.528;9.942;2023-05-16T06:38:14;3.63;;;2.65;;
34278;SDS011;20538;51.528;9.942;2023-05-16T06:40:40;8.05;;;3.08;;
34278;SDS011;20538;51.528;9.942;2023-05-16T06:43:05;14.10;;;3.50;;
34278;SDS011;20538;51.528;9.942;2023-05-16T06:45:31;8.13;;;2.65;;
34278;SDS011;20538;51.528;9.942;2023-05-16T06:47:57;14.10;;;2.80;;
34278;SDS011;20538;51.528;9.942;2023-05-16T06:50:22;8.02;;;2.72;;
34278;SDS011;20538;51.528;9.942;2023-05-16T06:52:48;9.05;;;2.90;;
34278;SDS011;20538;51.528;9.942;2023-05-16T06:55:14;10.45;;;3.22;;
34278;SDS011;20538;51.528;9.942;2023-05-16T06:57:40;6.40;;;2.38;;
34278;SDS011;20538;51.528;9.942;2023-05-16T07:00:06;8.63;;;2.45;;
34278;SDS011;20538;51.528;9.942;2023-05-16T07:02:32;12.20;;;2.05;;
34278;SDS011;20538;51.528;9.942;2023-05-16T07:04:58;10.20;;;2.80;;
34278;SDS011;20538;51.528;9.942;2023-05-16T07:07:24;7.72;;;2.60;;
34278;SDS011;20538;51.528;9.942;2023-05-16T07:09:50;14.13;;;2.30;;
34278;SDS011;20538;51.528;9.942;2023-05-16T07:12:15;9.15;;;1.90;;
34278;SDS011;20538;51.528;9.942;2023-05-16T07:14:41;17.88;;;3.72;;
34278;SDS011;20538;51.528;9.942;2023-05-16T07:17:07;9.02;;;2.65;;
34278;SDS011;20538;51.528;9.942;2023-05-16T07:19:33;11.88;;;3.05;;
34278;SDS011;20538;51.528;9.942;2023-05-16T07:21:59;15.35;;;2.85;;
34278;SDS011;20538;51.528;9.942;2023-05-16T07:24:25;10.27;;;3.00;;
34278;SDS011;20538;51.528;9.942;2023-05-16T07:26:50;15.13;;;3.42;;
34278;SDS011;20538;51.528;9.942;2023-05-16T07:29:16;12.70;;;2.90;;
34278;SDS011;20538;51.528;9.942;2023-05-16T07:31:42;14.85;;;2.53;;
34278;SDS011;20538;51.528;9.942;2023-05-16T07:34:08;16.70;;;4.05;;
34278;SDS011;20538;51.528;9.942;2023-05-16T07:36:37;12.15;;;2.85;;
34278;SDS011;20538;51.528;9.942;2023-05-16T07:39:03;15.93;;;3.22;;
34278;SDS011;20538;51.528;9.942;2023-05-16T07:41:29;14.90;;;3.35;;
34278;SDS011;20538;51.528;9.942;2023-05-16T07:43:55;11.95;;;2.50;;
34278;SDS011;20538;51.528;9.942;2023-05-16T07:46:21;9.00;;;2.42;;
34278;SDS011;20538;51.528;9.942;2023-05-16T07:48:46;13.18;;;3.30;;
34278;SDS011;20538;51.528;9.942;2023-05-16T07:51:12;12.43;;;3.25;;
34278;SDS011;20538;51.528;9.942;2023-05-16T07:53:38;9.60;;;2.97;;
34278;SDS011;20538;51.528;9.942;2023-05-16T07:56:03;13.70;;;2.70;;
34278;SDS011;20538;51.528;9.942;2023-05-16T07:58:31;13.45;;;3.28;;
34278;SDS011;20538;51.528;9.942;2023-05-16T08:00:57;10.75;;;3.08;;
34278;SDS011;20538;51.528;9.942;2023-05-16T08:03:23;12.43;;;2.53;;
34278;SDS011;20538;51.528;9.942;2023-05-16T08:05:48;19.00;;;2.80;;
34278;SDS011;20538;51.528;9.942;2023-05-16T08:08:15;22.60;;;2.80;;
34278;SDS011;20538;51.528;9.942;2023-05-16T08:10:41;9.82;;;2.22;;
34278;SDS011;20538;51.528;9.942;2023-05-16T08:13:06;12.38;;;2.70;;
34278;SDS011;20538;51.528;9.942;2023-05-16T08:15:32;10.95;;;2.50;;
34278;SDS011;20538;51.528;9.942;2023-05-16T08:17:58;18.85;;;2.63;;
34278;SDS011;20538;51.528;9.942;2023-05-16T08:20:24;9.27;;;1.85;;
34278;SDS011;20538;51.528;9.942;2023-05-16T08:22:52;11.40;;;2.53;;
34278;SDS011;20538;51.528;9.942;2023-05-16T08:25:18;15.35;;;2.67;;
34278;SDS011;20538;51.528;9.942;2023-05-16T08:27:45;13.77;;;3.55;;
34278;SDS011;20538;51.528;9.942;2023-05-16T08:30:13;19.00;;;2.80;;
34278;SDS011;20538;51.528;9.942;2023-05-16T08:32:39;9.27;;;2.13;;
34278;SDS011;20538;51.528;9.942;2023-05-16T08:35:05;9.95;;;2.05;;
34278;SDS011;20538;51.528;9.942;2023-05-16T08:37:31;14.80;;;2.50;;
34278;SDS011;20538;51.528;9.942;2023-05-16T08:39:57;14.52;;;2.20;;
34278;SDS011;20538;51.528;9.942;2023-05-16T08:42:23;10.13;;;2.15;;
34278;SDS011;20538;51.528;9.942;2023-05-16T08:44:48;10.25;;;1.83;;
34278;SDS011;20538;51.528;9.942;2023-05-16T08:47:17;10.63;;;2.47;;
34278;SDS011;20538;51.528;9.942;2023-05-16T08:49:50;9.35;;;1.60;;
34278;SDS011;20538;51.528;9.942;2023-05-16T08:52:21;10.60;;;1.73;;
34278;SDS011;20538;51.528;9.942;2023-05-16T08:54:59;9.20;;;1.75;;
34278;SDS011;20538;51.528;9.942;2023-05-16T08:57:31;7.55;;;1.23;;
34278;SDS011;20538;51.528;9.942;2023-05-16T08:59:58;6.45;;;1.63;;
34278;SDS011;20538;51.528;9.942;2023-05-16T09:02:24;5.85;;;1.63;;
34278;SDS011;20538;51.528;9.942;2023-05-16T09:04:50;7.60;;;1.73;;
34278;SDS011;20538;51.528;9.942;2023-05-16T09:07:17;10.07;;;2.13;;
34278;SDS011;20538;51.528;9.942;2023-05-16T09:09:42;9.52;;;1.35;;
34278;SDS011;20538;51.528;9.942;2023-05-16T09:12:08;8.18;;;2.17;;
34278;SDS011;20538;51.528;9.942;2023-05-16T09:14:35;12.45;;;1.95;;
34278;SDS011;20538;51.528;9.942;2023-05-16T09:17:02;9.75;;;1.90;;
34278;SDS011;20538;51.528;9.942;2023-05-16T09:19:36;8.02;;;1.50;;
34278;SDS011;20538;51.528;9.942;2023-05-16T09:22:05;8.15;;;1.15;;
34278;SDS011;20538;51.528;9.942;2023-05-16T09:24:38;6.15;;;1.20;;
34278;SDS011;20538;51.528;9.942;2023-05-16T09:27:11;3.75;;;1.17;;
34278;SDS011;20538;51.528;9.942;2023-05-16T09:29:39;9.27;;;1.98;;
34278;SDS011;20538;51.528;9.942;2023-05-16T09:32:09;8.93;;;1.48;;
34278;SDS011;20538;51.528;9.942;2023-05-16T09:34:47;11.70;;;1.70;;
34278;SDS011;20538;51.528;9.942;2023-05-16T09:37:15;9.88;;;1.75;;
34278;SDS011;20538;51.528;9.942;2023-05-16T09:39:51;10.38;;;1.90;;
34278;SDS011;20538;51.528;9.942;2023-05-16T09:42:19;14.93;;;1.90;;
34278;SDS011;20538;51.528;9.942;2023-05-16T09:44:47;13.02;;;1.85;;
34278;SDS011;20538;51.528;9.942;2023-05-16T09:47:17;8.80;;;1.65;;
34278;SDS011;20538;51.528;9.942;2023-05-16T09:49:44;11.55;;;1.77;;
34278;SDS011;20538;51.528;9.942;2023-05-16T09:52:11;11.68;;;2.10;;
34278;SDS011;20538;51.528;9.942;2023-05-16T09:54:37;6.57;;;2.63;;
34278;SDS011;20538;51.528;9.942;2023-05-16T09:57:03;8.90;;;2.53;;
34278;SDS011;20538;51.528;9.942;2023-05-16T09:59:30;7.60;;;1.70;;
34278;SDS011;20538;51.528;9.942;2023-05-16T10:02:02;8.38;;;1.55;;
34278;SDS011;20538;51.528;9.942;2023-05-16T10:04:35;9.13;;;2.00;;
34278;SDS011;20538;51.528;9.942;2023-05-16T10:07:01;14.02;;;2.45;;
34278;SDS011;20538;51.528;9.942;2023-05-16T10:09:33;18.65;;;1.67;;
34278;SDS011;20538;51.528;9.942;2023-05-16T10:12:00;14.60;;;1.98;;
34278;SDS011;20538;51.528;9.942;2023-05-16T10:14:29;8.45;;;1.45;;
34278;SDS011;20538;51.528;9.942;2023-05-16T10:16:58;7.65;;;1.60;;
34278;SDS011;20538;51.528;9.942;2023-05-16T10:19:25;7.95;;;2.00;;
34278;SDS011;20538;51.528;9.942;2023-05-16T10:21:52;7.07;;;1.67;;
34278;SDS011;20538;51.528;9.942;2023-05-16T10:24:25;6.38;;;1.98;;
34278;SDS011;20538;51.528;9.942;2023-05-16T10:26:55;21.15;;;8.98;;
34278;SDS011;20538;51.528;9.942;2023-05-16T10:29:22;16.33;;;2.15;;
34278;SDS011;20538;51.528;9.942;2023-05-16T10:31:52;10.35;;;2.10;;
34278;SDS011;20538;51.528;9.942;2023-05-16T10:34:19;10.35;;;2.50;;
34278;SDS011;20538;51.528;9.942;2023-05-16T10:36:45;7.38;;;1.73;;
34278;SDS011;20538;51.528;9.942;2023-05-16T10:39:12;6.85;;;1.48;;
34278;SDS011;20538;51.528;9.942;2023-05-16T10:41:39;9.00;;;1.55;;
34278;SDS011;20538;51.528;9.942;2023-05-16T10:44:11;6.63;;;1.73;;
34278;SDS011;20538;51.528;9.942;2023-05-16T10:46:38;4.72;;;1.42;;
34278;SDS011;20538;51.528;9.942;2023-05-16T10:49:23;4.65;;;1.05;;
34278;SDS011;20538;51.528;9.942;2023-05-16T10:52:09;5.68;;;1.70;;
34278;SDS011;20538;51.528;9.942;2023-05-16T10:54:39;10.25;;;1.52;;
34278;SDS011;20538;51.528;9.942;2023-05-16T10:57:09;6.00;;;1.60;;
34278;SDS011;20538;51.528;9.942;2023-05-16T11:02:21;7.00;;;1.75;;
34278;SDS011;20538;51.528;9.942;2023-05-16T11:04:52;9.82;;;1.35;;
34278;SDS011;20538;51.528;9.942;2023-05-16T11:07:29;5.72;;;1.35;;
34278;SDS011;20538;51.528;9.942;2023-05-16T11:10:10;3.25;;;1.10;;
34278;SDS011;20538;51.528;9.942;2023-05-16T11:15:24;6.80;;;1.65;;
34278;SDS011;20538;51.528;9.942;2023-05-16T11:18:05;7.90;;;1.27;;
34278;SDS011;20538;51.528;9.942;2023-05-16T11:20:36;8.90;;;2.00;;
34278;SDS011;20538;51.528;9.942;2023-05-16T11:25:56;8.75;;;1.30;;
34278;SDS011;20538;51.528;9.942;2023-05-16T11:28:25;5.50;;;1.20;;
34278;SDS011;20538;51.528;9.942;2023-05-16T11:30:56;8.95;;;1.50;;
34278;SDS011;20538;51.528;9.942;2023-05-16T11:38:31;6.03;;;1.48;;
34278;SDS011;20538;51.528;9.942;2023-05-16T11:41:03;6.30;;;1.20;;
34278;SDS011;20538;51.528;9.942;2023-05-16T11:43:40;5.03;;;1.13;;
34278;SDS011;20538;51.528;9.942;2023-05-16T11:46:10;11.07;;;1.58;;
34278;SDS011;20538;51.528;9.942;2023-05-16T11:48:37;8.88;;;1.42;;
34278;SDS011;20538;51.528;9.942;2023-05-16T11:51:02;11.45;;;1.40;;
34278;SDS011;20538;51.528;9.942;2023-05-16T11:53:29;5.40;;;1.45;;
34278;SDS011;20538;51.528;9.942;2023-05-16T11:55:57;4.90;;;1.50;;
34278;SDS011;20538;51.528;9.942;2023-05-16T11:58:26;8.18;;;1.25;;
34278;SDS011;20538;51.528;9.942;2023-05-16T12:00:56;5.47;;;1.40;;
34278;SDS011;20538;51.528;9.942;2023-05-16T12:03:22;9.70;;;1.73;;
34278;SDS011;20538;51.528;9.942;2023-05-16T12:05:54;7.90;;;1.63;;
34278;SDS011;20538;51.528;9.942;2023-05-16T12:08:23;5.80;;;1.30;;
34278;SDS011;20538;51.528;9.942;2023-05-16T12:10:49;5.93;;;1.10;;
34278;SDS011;20538;51.528;9.942;2023-05-16T12:13:16;5.68;;;1.08;;
34278;SDS011;20538;51.528;9.942;2023-05-16T12:15:44;5.00;;;1.20;;
34278;SDS011;20538;51.528;9.942;2023-05-16T12:18:10;4.65;;;1.08;;
34278;SDS011;20538;51.528;9.942;2023-05-16T12:20:36;7.28;;;1.33;;
34278;SDS011;20538;51.528;9.942;2023-05-16T12:23:02;10.10;;;1.42;;
34278;SDS011;20538;51.528;9.942;2023-05-16T12:25:32;7.57;;;1.50;;
34278;SDS011;20538;51.528;9.942;2023-05-16T12:28:00;6.05;;;1.70;;
34278;SDS011;20538;51.528;9.942;2023-05-16T12:30:28;9.23;;;1.42;;
34278;SDS011;20538;51.528;9.942;2023-05-16T12:32:55;5.95;;;1.25;;
34278;SDS011;20538;51.528;9.942;2023-05-16T12:35:28;6.15;;;1.80;;
34278;SDS011;20538;51.528;9.942;2023-05-16T12:37:55;3.08;;;1.00;;
34278;SDS011;20538;51.528;9.942;2023-05-16T12:40:21;6.15;;;1.55;;
34278;SDS011;20538;51.528;9.942;2023-05-16T12:42:51;5.90;;;1.42;;
34278;SDS011;20538;51.528;9.942;2023-05-16T12:45:18;7.07;;;2.60;;
34278;SDS011;20538;51.528;9.942;2023-05-16T12:47:44;5.00;;;1.27;;
34278;SDS011;20538;51.528;9.942;2023-05-16T12:50:11;8.00;;;1.50;;
34278;SDS011;20538;51.528;9.942;2023-05-16T12:52:57;3.80;;;1.00;;
34278;SDS011;20538;51.528;9.942;2023-05-16T12:55:24;3.03;;;0.95;;
34278;SDS011;20538;51.528;9.942;2023-05-16T12:57:51;9.70;;;2.42;;
34278;SDS011;20538;51.528;9.942;2023-05-16T13:00:19;8.43;;;2.00;;
34278;SDS011;20538;51.528;9.942;2023-05-16T13:02:46;17.02;;;4.95;;
34278;SDS011;20538;51.528;9.942;2023-05-16T13:05:12;17.92;;;6.13;;
34278;SDS011;20538;51.528;9.942;2023-05-16T13:07:39;7.32;;;2.30;;
34278;SDS011;20538;51.528;9.942;2023-05-16T13:10:13;5.55;;;1.60;;
34278;SDS011;20538;51.528;9.942;2023-05-16T13:12:39;3.63;;;1.10;;
34278;SDS011;20538;51.528;9.942;2023-05-16T13:15:06;9.52;;;2.08;;
34278;SDS011;20538;51.528;9.942;2023-05-16T13:17:33;5.35;;;1.70;;
34278;SDS011;20538;51.528;9.942;2023-05-16T13:19:59;4.78;;;1.00;;
34278;SDS011;20538;51.528;9.942;2023-05-16T13:22:26;9.43;;;2.33;;
34278;SDS011;20538;51.528;9.942;2023-05-16T13:24:52;6.72;;;1.00;;
34278;SDS011;20538;51.528;9.942;2023-05-16T13:27:17;6.75;;;0.93;;
34278;SDS011;20538;51.528;9.942;2023-05-16T13:29:43;2.20;;;0.95;;
34278;SDS011;20538;51.528;9.942;2023-05-16T13:32:09;5.85;;;1.40;;
34278;SDS011;20538;51.528;9.942;2023-05-16T13:34:34;8.68;;;1.20;;
34278;SDS011;20538;51.528;9.942;2023-05-16T13:37:00;7.72;;;1.35;;
34278;SDS011;20538;51.528;9.942;2023-05-16T13:39:26;7.45;;;0.85;;
34278;SDS011;20538;51.528;9.942;2023-05-16T13:41:51;25.20;;;3.08;;
34278;SDS011;20538;51.528;9.942;2023-05-16T13:44:17;13.20;;;1.50;;
34278;SDS011;20538;51.528;9.942;2023-05-16T13:46:43;4.53;;;1.30;;
34278;SDS011;20538;51.528;9.942;2023-05-16T13:49:09;6.60;;;1.48;;
34278;SDS011;20538;51.528;9.942;2023-05-16T13:51:35;6.68;;;1.42;;
34278;SDS011;20538;51.528;9.942;2023-05-16T13:54:01;4.18;;;1.05;;
34278;SDS011;20538;51.528;9.942;2023-05-16T13:56:26;7.82;;;1.75;;
34278;SDS011;20538;51.528;9.942;2023-05-16T13:58:52;6.53;;;1.30;;
34278;SDS011;20538;51.528;9.942;2023-05-16T14:01:18;6.88;;;1.23;;
34278;SDS011;20538;51.528;9.942;2023-05-16T14:03:43;5.53;;;1.08;;
34278;SDS011;20538;51.528;9.942;2023-05-16T14:06:09;7.28;;;1.23;;
34278;SDS011;20538;51.528;9.942;2023-05-16T14:08:35;6.90;;;1.20;;
34278;SDS011;20538;51.528;9.942;2023-05-16T14:11:00;9.35;;;1.40;;
34278;SDS011;20538;51.528;9.942;2023-05-16T14:13:26;5.82;;;1.13;;
34278;SDS011;20538;51.528;9.942;2023-05-16T14:15:52;5.50;;;1.35;;
34278;SDS011;20538;51.528;9.942;2023-05-16T14:18:17;9.15;;;1.65;;
34278;SDS011;20538;51.528;9.942;2023-05-16T14:20:43;4.82;;;1.25;;
34278;SDS011;20538;51.528;9.942;2023-05-16T14:23:09;5.03;;;2.05;;
34278;SDS011;20538;51.528;9.942;2023-05-16T14:25:34;6.68;;;1.20;;
34278;SDS011;20538;51.528;9.942;2023-05-16T14:28:00;6.30;;;1.10;;
34278;SDS011;20538;51.528;9.942;2023-05-16T14:30:25;3.72;;;1.23;;
34278;SDS011;20538;51.528;9.942;2023-05-16T14:32:51;4.47;;;1.50;;
34278;SDS011;20538;51.528;9.942;2023-05-16T14:35:17;3.40;;;0.77;;
34278;SDS011;20538;51.528;9.942;2023-05-16T14:37:42;7.47;;;1.30;;
34278;SDS011;20538;51.528;9.942;2023-05-16T14:40:08;3.63;;;1.35;;
34278;SDS011;20538;51.528;9.942;2023-05-16T14:42:34;4.22;;;1.45;;
34278;SDS011;20538;51.528;9.942;2023-05-16T14:45:00;5.07;;;0.93;;
34278;SDS011;20538;51.528;9.942;2023-05-16T14:47:26;4.93;;;1.35;;
34278;SDS011;20538;51.528;9.942;2023-05-16T14:49:53;5.25;;;1.55;;
34278;SDS011;20538;51.528;9.942;2023-05-16T14:52:20;4.32;;;1.08;;
34278;SDS011;20538;51.528;9.942;2023-05-16T14:54:46;3.85;;;1.10;;
34278;SDS011;20538;51.528;9.942;2023-05-16T14:57:12;5.55;;;1.60;;